• Join FlightAware (Why Join?)
  • Login
  • US Flag 
12:38AM EDT


 

Airport Tracker/Info


-or-


 

Live Flight TrackerFlight Track Log ✈ AFL150 ✈ 26-Jun-2014 ✈ UUEE / SVO - MUHA / HAV

Flight Track Log - Related Links

Times and Time Zones

All times are in EDT time to prevent confusion due to time zone crossing. See the AFL150 flight status page for this flight to view local times or setup timezone preferences in your user account.

Time Position Orientation Groundspeed Altitude Reporting Facility
EDT Latitude Longitude Course Direction KTS MPH feet Rate Location/Type
06:33AM 56.2408 36.6089 307° West  Level Estimated
06:34AM 56.3116 36.4340 306° West  Level Estimated
06:35AM 56.3821 36.2585 306° West  Level Estimated
06:36AM 56.4524 36.0822 306° West  Level Estimated
06:37AM 56.5224 35.9054 306° West  Level Estimated
06:38AM 56.5922 35.7279 306° West  Level Estimated
06:39AM 56.6617 35.5497 305° West  Level Estimated
06:40AM 56.7310 35.3708 305° West  Level Estimated
06:41AM 56.8000 35.1913 305° West  Level Estimated
06:42AM 56.8688 35.0112 305° West  Level Estimated
06:43AM 56.9373 34.8304 305° West  Level Estimated
06:44AM 57.0055 34.6489 305° West  Level Estimated
06:45AM 57.0735 34.4668 305° West  Level Estimated
06:46AM 57.1412 34.2839 304° West  Level Estimated
06:47AM 57.2086 34.1005 304° West  Level Estimated
06:48AM 57.2758 33.9163 304° West  Level Estimated
06:49AM 57.3427 33.7315 304° West  Level Estimated
06:50AM 57.4093 33.5460 304° West  Level Estimated
06:51AM 57.4757 33.3598 304° West  Level Estimated
06:52AM 57.5418 33.1730 303° West  Level Estimated
06:53AM 57.6076 32.9854 303° West  Level Estimated
06:54AM 57.6731 32.7972 303° West  Level Estimated
06:55AM 57.7383 32.6083 303° West  Level Estimated
06:56AM 57.8033 32.4188 303° West  Level Estimated
06:57AM 57.8680 32.2285 303° West  Level Estimated
06:58AM 57.9323 32.0376 302° West  Level Estimated
06:59AM 57.9964 31.8460 302° West  Level Estimated
07:00AM 58.0603 31.6537 302° West  Level Estimated
07:01AM 58.1238 31.4607 302° West  Level Estimated
07:02AM 58.1870 31.2670 302° West  Level Estimated
07:03AM 58.2500 31.0727 302° West  Level Estimated
07:04AM 58.3126 30.8776 302° West  Level Estimated
07:05AM 58.3749 30.6819 301° West  Level Estimated
07:06AM 58.4370 30.4854 301° West  Level Estimated
07:07AM 58.4987 30.2883 301° West  Level Estimated
07:08AM 58.5602 30.0905 301° West  Level Estimated
07:09AM 58.6213 29.8920 301° West  Level Estimated
07:10AM 58.6821 29.6928 300° West  Level Estimated
07:11AM 58.7426 29.4928 300° West  Level Estimated
07:12AM 58.8028 29.2922 300° West  Level Estimated
07:13AM 58.8628 29.0910 300° West  Level Estimated
07:14AM 58.9223 28.8890 300° West  Level Estimated
07:15AM 58.9816 28.6863 300° West  Level Estimated
07:16AM 59.0406 28.4829 299° West  Level Estimated
07:17AM 59.0992 28.2788 299° West  Level Estimated
07:18AM 59.1575 28.0740 299° West  Level Estimated
07:19AM 59.2155 27.8686 299° West  Level Estimated
07:20AM 59.2731 27.6624 299° West  Level Estimated
07:21AM 59.3305 27.4555 299° West  Level Estimated
07:22AM 59.3875 27.2480 298° West  Level Estimated
07:23AM 59.4441 27.0397 298° West  Level Estimated
07:24AM 59.5005 26.8307 298° West  Level Estimated
07:25AM 59.5565 26.6211 298° West  Level Estimated
07:26AM 59.6121 26.4107 298° West  Level Estimated
07:27AM 59.6675 26.1997 298° West  Level Estimated
07:28AM 59.7225 25.9879 297° West  Level Estimated
07:29AM 59.7771 25.7755 297° West  Level Estimated
07:30AM 59.8314 25.5623 297° West  Level Estimated
07:31AM 59.8854 25.3485 297° West  Level Estimated
07:32AM 59.9390 25.1340 297° West  Level Estimated
07:33AM 59.9923 24.9188 296° West  Level Estimated
07:34AM 60.0452 24.7029 296° West  Level Estimated
07:35AM 60.0977 24.4863 296° West  Level Estimated
07:36AM 60.1499 24.2690 296° West  Level Estimated
07:37AM 60.2018 24.0510 296° West  Level Estimated
07:38AM 60.2533 23.8323 295° West  Level Estimated
07:39AM 60.3044 23.6130 295° West  Level Estimated
07:40AM 60.3552 23.3930 295° West  Level Estimated
07:41AM 60.4056 23.1723 295° West  Level Estimated
07:42AM 60.4556 22.9508 295° West  Level Estimated
07:43AM 60.5053 22.7288 295° West  Level Estimated
07:44AM 60.5546 22.5060 294° West  Level Estimated
07:45AM 60.6035 22.2826 294° West  Level Estimated
07:46AM 60.6520 22.0585 294° West  Level Estimated
07:47AM 60.7002 21.8337 294° West  Level Estimated
07:48AM 60.7480 21.6082 294° West  Level Estimated
07:49AM 60.7954 21.3821 293° West  Level Estimated
07:50AM 60.8425 21.1553 293° West  Level Estimated
07:51AM 60.8891 20.9278 293° West  Level Estimated
07:52AM 60.9354 20.6997 293° West  Level Estimated
07:53AM 60.9813 20.4709 293° West  Level Estimated
07:54AM 61.0268 20.2414 292° West  Level Estimated
07:55AM 61.0719 20.0114 292° West  Level Estimated
07:56AM 61.1166 19.7806 292° West  Level Estimated
07:57AM 61.1609 19.5492 292° West  Level Estimated
07:58AM 61.2048 19.3171 292° West  Level Estimated
07:59AM 61.2483 19.0844 291° West  Level Estimated
08:00AM 61.2915 18.8511 291° West  Level Estimated
08:01AM 61.3342 18.6171 291° West  Level Estimated
08:02AM 61.3765 18.3825 291° West  Level Estimated
08:03AM 61.4184 18.1472 291° West  Level Estimated
08:04AM 61.4599 17.9114 290° West  Level Estimated
08:05AM 61.5010 17.6748 290° West  Level Estimated
08:06AM 61.5417 17.4377 290° West  Level Estimated
08:07AM 61.5820 17.2000 290° West  Level Estimated
08:08AM 61.6218 16.9616 289° West  Level Estimated
08:09AM 61.6613 16.7226 289° West  Level Estimated
08:10AM 61.7003 16.4830 289° West  Level Estimated
08:11AM 61.7389 16.2429 289° West  Level Estimated
08:12AM 61.7771 16.0021 289° West  Level Estimated
08:13AM 61.8149 15.7607 288° West  Level Estimated
08:14AM 61.8522 15.5187 288° West  Level Estimated
08:15AM 61.8891 15.2762 288° West  Level Estimated
08:16AM 61.9256 15.0330 288° West  Level Estimated
08:17AM 61.9617 14.7893 288° West  Level Estimated
08:18AM 61.9973 14.5450 287° West  Level Estimated
08:19AM 62.0325 14.3001 287° West  Level Estimated
08:20AM 62.0672 14.0547 287° West  Level Estimated
08:21AM 62.1016 13.8087 287° West  Level Estimated
08:22AM 62.1355 13.5622 286° West  Level Estimated
08:23AM 62.1689 13.3151 286° West  Level Estimated
08:24AM 62.2019 13.0675 286° West  Level Estimated
08:25AM 62.2345 12.8193 286° West  Level Estimated
08:26AM 62.2666 12.5706 286° West  Level Estimated
08:27AM 62.2983 12.3214 285° West  Level Estimated
08:28AM 62.3295 12.0716 285° West  Level Estimated
08:29AM 62.3603 11.8214 285° West  Level Estimated
08:30AM 62.3906 11.5706 285° West  Level Estimated
08:31AM 62.4205 11.3193 285° West  Level Estimated
08:32AM 62.4499 11.0675 284° West  Level Estimated
08:33AM 62.4789 10.8153 284° West  Level Estimated
08:34AM 62.5074 10.5625 284° West  Level Estimated
08:35AM 62.5354 10.3093 284° West  Level Estimated
08:36AM 62.5630 10.0556 283° West  Level Estimated
08:37AM 62.5901 9.8014 283° West  Level Estimated
08:38AM 62.6168 9.5467 283° West  Level Estimated
08:39AM 62.6430 9.2916 283° West  Level Estimated
08:40AM 62.6688 9.0361 282° West  Level Estimated
08:41AM 62.6940 8.7801 282° West  Level Estimated
08:42AM 62.7189 8.5237 282° West  Level Estimated
08:43AM 62.7432 8.2669 282° West  Level Estimated
08:44AM 62.7671 8.0096 282° West  Level Estimated
08:45AM 62.7905 7.7519 281° West  Level Estimated
08:46AM 62.8134 7.4939 281° West  Level Estimated
08:47AM 62.8359 7.2354 281° West  Level Estimated
08:48AM 62.8579 6.9765 281° West  Level Estimated
08:49AM 62.8794 6.7173 280° West  Level Estimated
08:50AM 62.9004 6.4576 280° West  Level Estimated
08:51AM 62.9210 6.1976 280° West  Level Estimated
08:52AM 62.9410 5.9373 280° West  Level Estimated
08:53AM 62.9606 5.6766 280° West  Level Estimated
08:54AM 62.9798 5.4155 279° West  Level Estimated
08:55AM 62.9984 5.1541 279° West  Level Estimated
08:56AM 63.0165 4.8924 279° West  Level Estimated
08:57AM 63.0342 4.6303 279° West  Level Estimated
08:58AM 63.0514 4.3680 278° West  Level Estimated
08:59AM 63.0681 4.1053 278° West  Level Estimated
09:00AM 63.0843 3.8424 278° West  Level Estimated
09:01AM 63.1000 3.5791 278° West  Level Estimated
09:02AM 63.1152 3.3156 277° West  Level Estimated
09:03AM 63.1300 3.0518 277° West  Level Estimated
09:04AM 63.1442 2.7877 277° West  Level Estimated
09:05AM 63.1580 2.5234 277° West  Level Estimated
09:06AM 63.1713 2.2588 276° West  Level Estimated
09:07AM 63.1840 1.9940 276° West  Level Estimated
09:08AM 63.1963 1.7290 276° West  Level Estimated
09:09AM 63.2081 1.4637 276° West  Level Estimated
09:10AM 63.2194 1.1983 276° West  Level Estimated
09:11AM 63.2302 0.9326 275° West  Level Estimated
09:12AM 63.2405 0.6667 275° West  Level Estimated
09:13AM 63.2503 0.4007 275° West  Level Estimated
09:14AM 63.2596 0.1345 275° West  Level Estimated
09:15AM 63.2685 -0.1319 274° West  Level Estimated
09:16AM 63.2768 -0.3985 274° West  Level Estimated
09:17AM 63.2846 -0.6652 274° West  Level Estimated
09:18AM 63.2919 -0.9320 274° West  Level Estimated
09:19AM 63.2987 -1.1990 273° West  Level Estimated
09:20AM 63.3050 -1.4661 273° West  Level Estimated
09:21AM 63.3109 -1.7333 273° West  Level Estimated
09:22AM 63.3162 -2.0006 273° West  Level Estimated
09:23AM 63.3210 -2.2680 272° West  Level Estimated
09:24AM 63.3253 -2.5355 272° West  Level Estimated
09:25AM 63.3291 -2.8031 272° West  Level Estimated
09:26AM 63.3325 -3.0707 272° West  Level Estimated
09:27AM 63.3353 -3.3384 271° West  Level Estimated
09:28AM 63.3376 -3.6061 271° West  Level Estimated
09:29AM 63.3394 -3.8739 271° West  Level Estimated
09:30AM 63.3407 -4.1417 271° West  Level Estimated
09:31AM 63.3415 -4.4095 271° West  Level Estimated
09:32AM 63.3418 -4.6774 270° West  Level Estimated
09:33AM 63.3416 -4.9452 270° West  Level Estimated
09:34AM 63.3409 -5.2130 270° West  Level Estimated
09:35AM 63.3397 -5.4808 270° West  Level Estimated
09:36AM 63.3380 -5.7486 269° West  Level Estimated
09:37AM 63.3358 -6.0163 269° West  Level Estimated
09:38AM 63.3331 -6.2840 269° West  Level Estimated
09:39AM 63.3299 -6.5517 269° West  Level Estimated
09:40AM 63.3262 -6.8193 268° West  Level Estimated
09:41AM 63.3220 -7.0868 268° West  Level Estimated
09:42AM 63.3173 -7.3542 268° West  Level Estimated
09:43AM 63.3121 -7.6215 268° West  Level Estimated
09:44AM 63.3064 -7.8887 267° West  Level Estimated
09:45AM 63.3002 -8.1559 267° West  Level Estimated
09:46AM 63.2934 -8.4229 267° West  Level Estimated
09:47AM 63.2862 -8.6897 267° West  Level Estimated
09:48AM 63.2785 -8.9565 266° West  Level Estimated
09:49AM 63.2703 -9.2230 266° West  Level Estimated
09:50AM 63.2616 -9.4895 266° West  Level Estimated
09:51AM 63.2524 -9.7557 266° West  Level Estimated
09:52AM 63.2427 -10.0218 265° West  Level Estimated
09:53AM 63.2325 -10.2877 265° West  Level Estimated
09:54AM 63.2218 -10.5534 265° West  Level Estimated
09:55AM 63.2106 -10.8189 265° West  Level Estimated
09:56AM 63.1989 -11.0843 265° West  Level Estimated
09:57AM 63.1868 -11.3493 264° West  Level Estimated
09:58AM 63.1741 -11.6142 264° West  Level Estimated
09:59AM 63.1609 -11.8788 264° West  Level Estimated
10:00AM 63.1473 -12.1432 264° West  Level Estimated
10:01AM 63.1331 -12.4073 263° West  Level Estimated
10:02AM 63.1185 -12.6712 263° West  Level Estimated
10:03AM 63.1034 -12.9348 263° West  Level Estimated
10:04AM 63.0878 -13.1981 263° West  Level Estimated
10:05AM 63.0717 -13.4611 262° West  Level Estimated
10:06AM 63.0551 -13.7238 262° West  Level Estimated
10:07AM 63.0380 -13.9863 262° West  Level Estimated
10:08AM 63.0204 -14.2484 262° West  Level Estimated
10:09AM 63.0024 -14.5102 261° West  Level Estimated
10:10AM 62.9839 -14.7716 261° West  Level Estimated
10:11AM 62.9649 -15.0328 261° West  Level Estimated
10:12AM 62.9454 -15.2935 261° West  Level Estimated
10:13AM 62.9254 -15.5540 261° West  Level Estimated
10:14AM 62.9049 -15.8141 260° West  Level Estimated
10:15AM 62.8840 -16.0738 260° West  Level Estimated
10:16AM 62.8626 -16.3331 260° West  Level Estimated
10:17AM 62.8407 -16.5921 260° West  Level Estimated
10:18AM 62.8184 -16.8506 259° West  Level Estimated
10:19AM 62.7955 -17.1088 259° West  Level Estimated
10:20AM 62.7722 -17.3666 259° West  Level Estimated
10:21AM 62.7485 -17.6239 259° West  Level Estimated
10:22AM 62.7242 -17.8808 258° West  Level Estimated
10:23AM 62.6995 -18.1374 258° West  Level Estimated
10:24AM 62.6743 -18.3934 258° West  Level Estimated
10:25AM 62.6487 -18.6491 258° West  Level Estimated
10:26AM 62.6226 -18.9043 258° West  Level Estimated
10:27AM 62.5960 -19.1590 257° West  Level Estimated
10:28AM 62.5690 -19.4133 257° West  Level Estimated
10:29AM 62.5415 -19.6671 257° West  Level Estimated
10:30AM 62.5135 -19.9204 257° West  Level Estimated
10:31AM 62.4851 -20.1733 256° West  Level Estimated
10:32AM 62.4562 -20.4257 256° West  Level Estimated
10:33AM 62.4269 -20.6775 256° West  Level Estimated
10:34AM 62.3972 -20.9289 256° West  Level Estimated
10:35AM 62.3669 -21.1798 256° West  Level Estimated
10:36AM 62.3363 -21.4302 255° West  Level Estimated
10:37AM 62.3051 -21.6801 255° West  Level Estimated
10:38AM 62.2735 -21.9294 255° West  Level Estimated
10:39AM 62.2415 -22.1782 255° West  Level Estimated
10:40AM 62.2091 -22.4265 254° West  Level Estimated
10:41AM 62.1762 -22.6743 254° West  Level Estimated
10:42AM 62.1428 -22.9215 254° West  Level Estimated
10:43AM 62.1090 -23.1681 254° West  Level Estimated
10:44AM 62.0748 -23.4142 254° West  Level Estimated
10:45AM 62.0401 -23.6598 253° West  Level Estimated
10:46AM 62.0050 -23.9048 253° West  Level Estimated
10:47AM 61.9695 -24.1492 253° West  Level Estimated
10:48AM 61.9335 -24.3930 253° West  Level Estimated
10:49AM 61.8971 -24.6363 252° West  Level Estimated
10:50AM 61.8603 -24.8790 252° West  Level Estimated
10:51AM 61.8231 -25.1211 252° West  Level Estimated
10:52AM 61.7854 -25.3626 252° West  Level Estimated
10:53AM 61.7473 -25.6035 252° West  Level Estimated
10:54AM 61.7088 -25.8438 251° West  Level Estimated
10:55AM 61.6698 -26.0835 251° West  Level Estimated
10:56AM 61.6305 -26.3227 251° West  Level Estimated
10:57AM 61.5907 -26.5611 251° West  Level Estimated
10:58AM 61.5505 -26.7990 251° West  Level Estimated
10:59AM 61.5099 -27.0363 250° West  Level Estimated
11:00AM 61.4689 -27.2729 250° West  Level Estimated
11:01AM 61.4275 -27.5090 250° West  Level Estimated
11:02AM 61.3857 -27.7444 250° West  Level Estimated
11:03AM 61.3435 -27.9791 250° West  Level Estimated
11:04AM 61.3008 -28.2132 249° West  Level Estimated
11:05AM 61.2578 -28.4467 249° West  Level Estimated
11:06AM 61.2144 -28.6796 249° West  Level Estimated
11:07AM 61.1705 -28.9118 249° West  Level Estimated
11:08AM 61.1263 -29.1433 249° West  Level Estimated
11:09AM 61.0817 -29.3742 248° West  Level Estimated
11:10AM 61.0367 -29.6044 248° West  Level Estimated
11:11AM 60.9912 -29.8340 248° West  Level Estimated
11:12AM 60.9454 -30.0630 248° West  Level Estimated
11:13AM 60.8993 -30.2912 247° West  Level Estimated
11:14AM 60.8527 -30.5189 247° West  Level Estimated
11:15AM 60.8057 -30.7458 247° West  Level Estimated
11:16AM 60.7584 -30.9721 247° West  Level Estimated
11:17AM 60.7107 -31.1977 247° West  Level Estimated
11:18AM 60.6626 -31.4226 247° West  Level Estimated
11:19AM 60.6141 -31.6469 246° West  Level Estimated
11:20AM 60.5653 -31.8705 246° West  Level Estimated
11:21AM 60.5161 -32.0934 246° West  Level Estimated
11:22AM 60.4665 -32.3156 246° West  Level Estimated
11:23AM 60.4165 -32.5372 246° West  Level Estimated
11:24AM 60.3662 -32.7580 245° Southwest  Level Estimated
11:25AM 60.3155 -32.9782 245° Southwest  Level Estimated
11:26AM 60.2645 -33.1977 245° Southwest  Level Estimated
11:27AM 60.2131 -33.4165 245° Southwest  Level Estimated
11:28AM 60.1613 -33.6346 245° Southwest  Level Estimated
11:29AM 60.1092 -33.8521 244° Southwest  Level Estimated
11:30AM 60.0567 -34.0688 244° Southwest  Level Estimated
11:31AM 60.0039 -34.2849 244° Southwest  Level Estimated
11:32AM 59.9507 -34.5003 244° Southwest  Level Estimated
11:33AM 59.8971 -34.7149 244° Southwest  Level Estimated
11:34AM 59.8433 -34.9289 243° Southwest  Level Estimated
11:35AM 59.7890 -35.1422 243° Southwest  Level Estimated
11:36AM 59.7344 -35.3548 243° Southwest  Level Estimated
11:37AM 59.6795 -35.5667 243° Southwest  Level Estimated
11:38AM 59.6243 -35.7779 243° Southwest  Level Estimated
11:39AM 59.5687 -35.9884 243° Southwest  Level Estimated
11:40AM 59.5127 -36.1982 242° Southwest  Level Estimated
11:41AM 59.4565 -36.4073 242° Southwest  Level Estimated
11:42AM 59.3999 -36.6157 242° Southwest  Level Estimated
11:43AM 59.3429 -36.8234 242° Southwest  Level Estimated
11:44AM 59.2857 -37.0305 242° Southwest  Level Estimated
11:45AM 59.2281 -37.2368 241° Southwest  Level Estimated
11:46AM 59.1702 -37.4424 241° Southwest  Level Estimated
11:47AM 59.1119 -37.6474 241° Southwest  Level Estimated
11:48AM 59.0534 -37.8516 241° Southwest  Level Estimated
11:49AM 58.9945 -38.0551 241° Southwest  Level Estimated
11:50AM 58.9353 -38.2580 241° Southwest  Level Estimated
11:51AM 58.8758 -38.4601 240° Southwest  Level Estimated
11:52AM 58.8160 -38.6615 240° Southwest  Level Estimated
11:53AM 58.7558 -38.8623 240° Southwest  Level Estimated
11:54AM 58.6954 -39.0624 240° Southwest  Level Estimated
11:55AM 58.6346 -39.2617 240° Southwest  Level Estimated
11:56AM 58.5736 -39.4604 240° Southwest  Level Estimated
11:57AM 58.5122 -39.6584 239° Southwest  Level Estimated
11:58AM 58.4505 -39.8556 239° Southwest  Level Estimated
11:59AM 58.3885 -40.0522 239° Southwest  Level Estimated
12:00PM 58.3262 -40.2481 239° Southwest  Level Estimated
12:01PM 58.2637 -40.4433 239° Southwest  Level Estimated
12:02PM 58.2008 -40.6378 239° Southwest  Level Estimated
12:03PM 58.1376 -40.8317 238° Southwest  Level Estimated
12:04PM 58.0742 -41.0248 238° Southwest  Level Estimated
12:05PM 58.0104 -41.2173 238° Southwest  Level Estimated
12:06PM 57.9464 -41.4090 238° Southwest  Level Estimated
12:07PM 57.8820 -41.6001 238° Southwest  Level Estimated
12:08PM 57.8174 -41.7905 238° Southwest  Level Estimated
12:09PM 57.7525 -41.9802 237° Southwest  Level Estimated
12:10PM 57.6874 -42.1693 237° Southwest  Level Estimated
12:11PM 57.6219 -42.3576 237° Southwest  Level Estimated
12:12PM 57.5562 -42.5453 237° Southwest  Level Estimated
12:13PM 57.4901 -42.7323 237° Southwest  Level Estimated
12:14PM 57.4238 -42.9186 237° Southwest  Level Estimated
12:15PM 57.3573 -43.1042 236° Southwest  Level Estimated
12:16PM 57.2904 -43.2892 236° Southwest  Level Estimated
12:17PM 57.2233 -43.4735 236° Southwest  Level Estimated
12:18PM 57.1559 -43.6571 236° Southwest  Level Estimated
12:19PM 57.0883 -43.8401 236° Southwest  Level Estimated
12:20PM 57.0204 -44.0224 236° Southwest  Level Estimated
12:21PM 56.9522 -44.2040 236° Southwest  Level Estimated
12:22PM 56.8838 -44.3850 235° Southwest  Level Estimated
12:23PM 56.8151 -44.5653 235° Southwest  Level Estimated
12:24PM 56.7461 -44.7449 235° Southwest  Level Estimated
12:25PM 56.6769 -44.9239 235° Southwest  Level Estimated
12:26PM 56.6074 -45.1022 235° Southwest  Level Estimated
12:27PM 56.5377 -45.2799 235° Southwest  Level Estimated
12:28PM 56.4677 -45.4569 234° Southwest  Level Estimated
12:29PM 56.3975 -45.6332 234° Southwest  Level Estimated
12:30PM 56.3270 -45.8089 234° Southwest  Level Estimated
12:31PM 56.2563 -45.9840 234° Southwest  Level Estimated
12:32PM 56.1853 -46.1584 234° Southwest  Level Estimated
12:33PM 56.1141 -46.3322 234° Southwest  Level Estimated
12:34PM 56.0426 -46.5053 234° Southwest  Level Estimated
12:35PM 55.9710 -46.6778 233° Southwest  Level Estimated
12:36PM 55.8990 -46.8496 233° Southwest  Level Estimated
12:37PM 55.8268 -47.0208 233° Southwest  Level Estimated
12:38PM 55.7544 -47.1914 233° Southwest  Level Estimated
12:39PM 55.6818 -47.3613 233° Southwest  Level Estimated
12:40PM 55.6089 -47.5306 233° Southwest  Level Estimated
12:41PM 55.5358 -47.6993 233° Southwest  Level Estimated
12:42PM 55.4624 -47.8674 232° Southwest  Level Estimated
12:43PM 55.3888 -48.0348 232° Southwest  Level Estimated
12:44PM 55.3150 -48.2016 232° Southwest  Level Estimated
12:45PM 55.2410 -48.3678 232° Southwest  Level Estimated
12:46PM 55.1668 -48.5333 232° Southwest  Level Estimated
12:47PM 55.0923 -48.6983 232° Southwest  Level Estimated
12:48PM 55.0176 -48.8626 232° Southwest  Level Estimated
12:49PM 54.9426 -49.0263 231° Southwest  Level Estimated
12:50PM 54.8675 -49.1894 231° Southwest  Level Estimated
12:51PM 54.7921 -49.3520 231° Southwest  Level Estimated
12:52PM 54.7166 -49.5139 231° Southwest  Level Estimated
12:53PM 54.6408 -49.6751 231° Southwest  Level Estimated
12:54PM 54.5648 -49.8358 231° Southwest  Level Estimated
12:55PM 54.4885 -49.9959 231° Southwest  Level Estimated
12:56PM 54.4121 -50.1554 231° Southwest  Level Estimated
12:57PM 54.3355 -50.3143 230° Southwest  Level Estimated
12:58PM 54.2587 -50.4726 230° Southwest  Level Estimated
12:59PM 54.1816 -50.6304 230° Southwest  Level Estimated
01:00PM 54.1043 -50.7875 230° Southwest  Level Estimated
01:01PM 54.0269 -50.9440 230° Southwest  Level Estimated
01:01PM 54.9167 -54.0667 229° Southwest 410 472 37,000  Level Moncton Center
01:02PM 53.9492 -51.1000 230° Southwest  Level Estimated
01:02PM 54.8667 -54.2500 245° Southwest 410 472 37,000  Level Moncton Center
01:03PM 53.8713 -51.2554 230° Southwest  Level Estimated
01:03PM 54.8167 -54.4000 240° Southwest 420 483 37,000  Level Moncton Center
01:04PM 53.7933 -51.4102 230° Southwest  Level Estimated
01:04PM 54.7667 -54.6000 247° West 420 483 37,000  Level Moncton Center
01:05PM 53.7150 -51.5644 229° Southwest  Level Estimated
01:05PM 54.7000 -54.7500 232° Southwest 410 472 37,000  Level Moncton Center
01:06PM 53.6366 -51.7181 229° Southwest  Level Estimated
01:06PM 54.6500 -54.9333 245° Southwest 410 472 37,000  Level Moncton Center
01:07PM 54.6000 -55.1333 247° West 410 472 37,000  Level Moncton Center
01:08PM 54.5333 -55.3167 238° Southwest 410 472 37,000  Level Gander Center
01:09PM 54.4667 -55.4333 226° Southwest 420 483 37,000  Level Gander Center
01:10PM 54.3667 -55.5667 218° Southwest 420 483 37,000  Level Gander Center
01:11PM 54.2667 -55.6833 214° Southwest 420 483 37,000  Level Moncton Center
01:12PM 54.1500 -55.8833 225° Southwest 420 483 37,000  Level Gander Center
01:14PM 54.0167 -56.1000 224° Southwest 420 483 37,000  Level Gander Center
01:15PM 53.9333 -56.2333 223° Southwest 420 483 37,000  Level Gander Center
01:16PM 53.8000 -56.4167 219° Southwest 420 483 37,000  Level Gander Center
01:17PM 53.7167 -56.5333 220° Southwest 410 472 37,000  Level Gander Center
01:18PM 53.6333 -56.6500 220° Southwest 410 472 37,000  Level Gander Center
01:19PM 53.5500 -56.7833 224° Southwest 410 472 37,000  Level Gander Center
01:20PM 53.4500 -56.9000 215° Southwest 410 472 37,000  Level Gander Center
01:21PM 53.4000 -56.9667 218° Southwest 400 460 37,000  Level Gander Center
01:22PM 53.3167 -57.0833 220° Southwest 400 460 37,000  Level Gander Center
01:23PM 53.2500 -57.2000 226° Southwest 400 460 37,000  Level Gander Center
01:25PM 53.0500 -57.4333 215° Southwest 400 460 37,000  Level Moncton Center
01:26PM 52.9833 -57.5667 230° Southwest 400 460 37,000  Level Moncton Center
01:27PM 52.8833 -57.6833 215° Southwest 390 449 37,000  Level Gander Center
01:28PM 52.8167 -57.7833 222° Southwest 390 449 37,000  Level Moncton Center
01:30PM 52.6500 -58.0167 220° Southwest 380 437 37,000 -120 Level Moncton Center
01:31PM 52.5833 -58.1167 222° Southwest 380 437 36,700 -420 Descending Moncton Center
01:32PM 52.4833 -58.2333 215° Southwest 380 437 36,200 -360 Descending Moncton Center
01:33PM 52.4000 -58.3333 216° Southwest 380 437 36,000 -120 Descending Moncton Center
01:34PM 52.3167 -58.4500 221° Southwest 380 437 36,000  Level Moncton Center
01:35PM 52.2000 -58.6000 218° Southwest 370 426 36,000  Level Gander Center
01:36PM 52.1333 -58.7000 223° Southwest 370 426 36,000  Level Gander Center
01:37PM 52.0500 -58.8000 216° Southwest 360 414 36,000  Level Gander Center
01:38PM 51.9667 -58.9167 221° Southwest 360 414 36,000  Level Gander Center
01:40PM 51.8000 -59.1167 217° Southwest 360 414 36,000  Level Gander Center
01:41PM 51.7333 -59.2000 218° Southwest 360 414 36,000  Level Gander Center
01:42PM 51.6500 -59.3167 221° Southwest 360 414 36,000  Level Gander Center
01:43PM 51.5833 -59.4333 227° Southwest 360 414 36,000  Level Gander Center
01:44PM 51.5000 -59.5167 212° Southwest 360 414 36,000  Level Gander Center
01:45PM 51.4167 -59.6167 217° Southwest 360 414 36,000  Level Gander Center
01:46PM 51.3500 -59.7000 218° Southwest 360 414 36,000  Level Gander Center
01:47PM 51.2667 -59.8167 221° Southwest 360 414 36,000  Level Gander Center
01:48PM 51.2167 -59.8833 220° Southwest 360 414 36,000  Level Moncton Center
01:49PM 51.1333 -59.9667 212° Southwest 360 414 36,000  Level Moncton Center
01:50PM 51.0167 -60.1167 219° Southwest 360 414 36,000  Level Gander Center
01:51PM 50.9333 -60.2167 217° Southwest 360 414 36,000  Level Gander Center
01:52PM 50.8500 -60.3000 212° Southwest 350 403 36,000  Level Gander Center
01:53PM 50.8167 -60.3667 232° Southwest 360 414 36,000  Level Moncton Center
01:54PM 50.7333 -60.4500 212° Southwest 360 414 36,000  Level Moncton Center
01:55PM 50.6167 -60.6000 219° Southwest 370 426 36,000  Level Gander Center
01:56PM 50.5667 -60.6500 212° Southwest 360 414 36,000  Level Moncton Center
01:58PM 50.3667 -60.8833 217° Southwest 370 426 36,000  Level Gander Center
01:59PM 50.2833 -61.0000 222° Southwest 370 426 36,000  Level Gander Center
02:00PM 50.2167 -61.0667 213° Southwest 370 426 36,000  Level Gander Center
02:01PM 50.1667 -61.1333 221° Southwest 360 414 36,000  Level Moncton Center
02:02PM 50.0833 -61.2333 218° Southwest 360 414 36,000  Level Moncton Center
02:03PM 50.0000 -61.3167 213° Southwest 370 426 36,000  Level Moncton Center
02:04PM 49.9167 -61.4000 213° Southwest 370 426 36,000  Level Moncton Center
02:05PM 49.8000 -61.5333 216° Southwest 360 414 36,000  Level Gander Center
02:06PM 49.7167 -61.6500 222° Southwest 370 426 36,000  Level Gander Center
02:07PM 49.6833 -61.7000 224° Southwest 370 426 36,000  Level Moncton Center
02:08PM 49.6000 -61.7833 213° Southwest 370 426 36,000  Level Moncton Center
02:09PM 49.5167 -61.9000 222° Southwest 370 426 36,000  Level Moncton Center
02:10PM 49.4333 -61.9833 213° Southwest 370 426 36,000  Level Moncton Center
02:11PM 49.3500 -62.0500 208° Southwest 370 426 36,000  Level Moncton Center
02:12PM 49.2500 -62.1667 217° Southwest 370 426 36,000  Level Moncton Center
02:13PM 49.1833 -62.2500 219° Southwest 370 426 36,000  Level Moncton Center
02:14PM 49.0833 -62.3500 213° Southwest 370 426 36,000  Level Moncton Center
02:15PM 49.0000 -62.4333 213° Southwest 360 414 36,000  Level Moncton Center
02:16PM 48.9167 -62.5333 218° Southwest 370 426 36,000  Level Moncton Center
02:17PM 48.8333 -62.6167 213° Southwest 370 426 36,000  Level Moncton Center
02:18PM 48.7667 -62.7167 225° Southwest 380 437 36,000  Level Moncton Center
02:19PM 48.6833 -62.8000 213° Southwest 370 426 36,000  Level Moncton Center
02:20PM 48.6000 -62.9000 218° Southwest 380 437 36,000  Level Moncton Center
02:21PM 48.5167 -62.9833 214° Southwest 370 426 36,000  Level Moncton Center
02:22PM 48.4167 -63.0833 214° Southwest 370 426 36,000  Level Moncton Center
02:23PM 48.3500 -63.1667 220° Southwest 370 426 36,000  Level Moncton Center
02:24PM 48.2500 -63.2667 214° Southwest 370 426 36,000  Level Moncton Center
02:26PM 48.0833 -63.4500 216° Southwest 370 426 36,000  Level Moncton Center
02:27PM 48.0000 -63.5167 208° Southwest 370 426 36,000  Level Moncton Center
02:28PM 47.9167 -63.6167 219° Southwest 370 426 36,000  Level Moncton Center
02:29PM 47.8333 -63.7000 214° Southwest 370 426 36,000  Level Moncton Center
02:30PM 47.7500 -63.8000 219° Southwest 370 426 36,000  Level Moncton Center
02:31PM 47.6500 -63.8833 209° Southwest 370 426 36,000  Level Moncton Center
02:32PM 47.5667 -63.9833 219° Southwest 380 437 36,000  Level Moncton Center
02:33PM 47.4833 -64.0833 219° Southwest 380 437 36,000  Level Moncton Center
02:34PM 47.4000 -64.1500 208° Southwest 380 437 36,000  Level Moncton Center
02:35PM 47.3167 -64.2500 219° Southwest 380 437 36,000  Level Moncton Center
02:37PM 47.1333 -64.4167 212° Southwest 380 437 36,000  Level Moncton Center
02:38PM 47.0500 -64.5000 214° Southwest 380 437 36,000  Level Moncton Center
02:39PM 46.9333 -64.6333 218° Southwest 380 437 36,000  Level Gander Center
02:40PM 46.8167 -64.7167 206° Southwest 380 437 36,000  Level Gander Center
02:41PM 46.7333 -64.8167 219° Southwest 390 449 36,000  Level Gander Center
02:42PM 46.6500 -64.9000 214° Southwest 390 449 36,000  Level Gander Center
02:43PM 46.6000 -64.9333 205° Southwest 390 449 36,000  Level Moncton Center
02:44PM 46.5167 -65.0333 220° Southwest 390 449 36,000  Level Moncton Center
02:45PM 46.4333 -65.1333 220° Southwest 390 449 36,000  Level Moncton Center
02:46PM 46.3167 -65.2167 206° Southwest 390 449 36,000  Level Moncton Center
02:47PM 46.2333 -65.3000 215° Southwest 390 449 36,000  Level Moncton Center
02:48PM 46.1500 -65.3833 215° Southwest 390 449 36,000  Level Moncton Center
02:49PM 46.0500 -65.4833 215° Southwest 390 449 36,000  Level Moncton Center
02:50PM 45.9667 -65.5500 209° Southwest 390 449 36,000  Level Moncton Center
02:51PM 45.8667 -65.6500 215° Southwest 390 449 36,000  Level Moncton Center
02:52PM 45.7833 -65.7333 215° Southwest 390 449 36,000  Level Moncton Center
02:53PM 45.6833 -65.8167 210° Southwest 390 449 36,000  Level Moncton Center
02:54PM 45.6000 -65.9000 215° Southwest 390 449 36,000  Level Moncton Center
02:55PM 45.5167 -66.0000 220° Southwest 390 449 36,000  Level Moncton Center
02:56PM 45.4333 -66.0667 209° Southwest 390 449 36,000  Level Moncton Center
02:58PM 45.2578 -66.2358 214° Southwest 398 458 36,000  Level Boston Center
02:59PM 45.1333 -66.3333 209° Southwest 400 460 36,000  Level Moncton Center
03:00PM 45.0333 -66.4167 211° Southwest 400 460 36,000  Level Moncton Center
03:03PM 44.7667 -66.6833 215° Southwest 400 460 36,000  Level Moncton Center
03:04PM 44.6833 -66.7667 215° Southwest 400 460 36,000  Level Moncton Center
03:05PM 44.6167 -66.8833 231° Southwest 400 460 36,000  Level Moncton Center
03:07PM 44.4500 -67.1333 227° Southwest 400 460 36,000  Level Moncton Center
03:08PM 44.3833 -67.2500 231° Southwest 400 460 36,000  Level Moncton Center
03:09PM 44.3167 -67.3667 231° Southwest 400 460 36,000  Level Moncton Center
03:10PM 44.2500 -67.4833 231° Southwest 400 460 36,000  Level Moncton Center
03:11PM 44.1500 -67.5833 216° Southwest 400 460 36,000  Level Moncton Center
03:12PM 44.0833 -67.7000 232° Southwest 400 460 36,000  Level Moncton Center
03:13PM 44.0167 -67.8167 232° Southwest 400 460 36,000  Level Moncton Center
03:15PM 43.8667 -68.0333 226° Southwest 400 460 36,000  Level Moncton Center
03:17PM 43.6897 -68.3267 230° Southwest 399 459 36,000  Level Boston Center
03:18PM 43.6144 -68.4403 228° Southwest 399 459 36,000  Level Boston Center
03:19PM 43.5469 -68.5408 227° Southwest 401 461 36,000  Level Boston Center
03:20PM 43.4547 -68.6772 227° Southwest 402 463 36,000  Level Boston Center
03:21PM 43.3781 -68.7903 227° Southwest 402 463 36,000  Level Boston Center
03:22PM 43.3006 -68.9033 227° Southwest 403 464 36,000  Level Boston Center
03:23PM 43.2239 -69.0178 227° Southwest 404 465 36,000  Level Boston Center
03:24PM 43.1450 -69.1300 226° Southwest 404 465 36,000  Level Boston Center
03:25PM 43.0642 -69.2511 228° Southwest 405 466 36,000  Level Boston Center
03:26PM 42.9872 -69.3614 226° Southwest 405 466 36,000  Level Boston Center
03:28PM 42.8303 -69.5864 226° Southwest 405 466 36,000  Level Boston Center
03:29PM 42.7528 -69.6969 226° Southwest 405 466 36,000  Level Boston Center
03:32PM 42.5808 -69.9431 227° Southwest 406 467 36,000  Level Boston Center
03:33PM 42.5008 -70.0539 226° Southwest 410 472 36,000  Level Boston Center
03:34PM 42.4222 -70.1647 226° Southwest 409 471 36,000  Level Boston Center
03:35PM 42.3433 -70.2753 226° Southwest 410 472 36,000  Level Boston Center
03:36PM 42.2639 -70.3872 226° Southwest 410 472 36,000  Level Boston Center
03:37PM 42.1839 -70.4967 225° Southwest 410 472 36,000  Level Boston Center
03:38PM 42.1036 -70.6075 226° Southwest 411 473 36,000  Level Boston Center
03:40PM 41.9356 -70.8386 226° Southwest 412 474 36,000  Level Boston Center
03:41PM 41.8561 -70.9483 226° Southwest 412 474 36,000  Level Boston Center
03:43PM 41.6833 -71.1667 223° Southwest 410 472 36,000  Level Moncton Center
03:44PM 41.5983 -71.2972 229° Southwest 413 475 36,000  Level Boston Center
03:45PM 41.5186 -71.4061 226° Southwest 414 476 36,000  Level Boston Center
03:46PM 41.4372 -71.5142 225° Southwest 414 476 36,000  Level Boston Center
03:49PM 41.1681 -71.8497 223° Southwest 415 478 36,000  Level Boston Center
03:51PM 41.0042 -72.0517 223° Southwest 415 478 36,000  Level Boston Center
03:52PM 40.9186 -72.1567 223° Southwest 416 479 36,000  Level Boston Center
03:53PM 40.8150 -72.2814 222° Southwest 417 480 36,000  Level Boston Center
03:54PM 40.7300 -72.3858 223° Southwest 417 480 36,000  Level Boston Center
03:55PM 40.7010 -72.3966 223° Southwest  Level FlightAware Approximate
03:55PM 40.6528 -72.4806 223° Southwest 418 481 36,000  Level Boston Center
03:56PM 40.5486 -72.6058 222° Southwest 420 483 36,000  Level Boston Center
03:57PM 40.4631 -72.7097 223° Southwest 420 483 36,000  Level Boston Center
03:58PM 40.3781 -72.8128 223° Southwest 419 482 36,000  Level Boston Center
03:59PM 40.2906 -72.9161 222° Southwest 420 483 36,000  Level Boston Center
04:00PM 40.2008 -73.0236 222° Southwest 422 486 36,000  Level Boston Center
04:01PM 40.1136 -73.1272 222° Southwest 422 486 36,000  Level Boston Center
04:02PM 40.0272 -73.2314 223° Southwest 425 489 36,000  Level Boston Center
04:05PM 39.8378 -73.4597 223° Southwest 426 490 36,000  Level Boston Center
04:06PM 39.7503 -73.5647 223° Southwest 427 491 36,000  Level Boston Center
04:07PM 39.6400 -73.6972 223° Southwest 432 497 36,000  Level Washington Center
04:08PM 39.5542 -73.7989 222° Southwest 432 497 36,000  Level Washington Center
04:09PM 39.4661 -73.9033 222° Southwest 432 497 36,000  Level Washington Center
04:10PM 39.3778 -74.0075 222° Southwest 437 503 36,000  Level Washington Center
04:12PM 39.1969 -74.2150 222° Southwest 437 503 36,000  Level Washington Center
04:15PM 38.9314 -74.5242 222° Southwest 437 503 36,000  Level Washington Center
04:17PM 38.7539 -74.7292 220° Southwest 437 503 36,000  Level Washington Center
04:19PM 38.5464 -74.8883 211° Southwest 437 503 36,000  Level Washington Center
04:20PM 38.4447 -74.9661 211° Southwest 438 504 36,000  Level Washington Center
04:21PM 38.3386 -75.0439 210° Southwest 438 504 36,000  Level Washington Center
04:22PM 38.2389 -75.1264 213° Southwest 438 504 36,000  Level Washington Center
04:23PM 38.1369 -75.2064 212° Southwest 438 504 36,000  Level Washington Center
04:24PM 38.0331 -75.2858 211° Southwest 438 504 36,000  Level Washington Center
04:25PM 37.9225 -75.3600 208° Southwest 443 510 36,000  Level Washington Center
04:26PM 37.8206 -75.4394 212° Southwest 443 510 36,000  Level Washington Center
04:28PM 37.6039 -75.5969 210° Southwest 443 510 36,000  Level Washington Center
04:30PM 37.3908 -75.7539 210° Southwest 443 510 36,000  Level Washington Center
04:31PM 37.2864 -75.8319 211° Southwest 443 510 36,000  Level Washington Center
04:33PM 37.0711 -75.9903 210° Southwest 449 517 36,000  Level Washington Center
04:34PM 36.9436 -76.0728 207° Southwest 461 531 36,000  Level Washington Center
04:35PM 36.8347 -76.1525 210° Southwest 468 539 36,000  Level Washington Center
04:36PM 36.7261 -76.2294 210° Southwest 463 533 36,000  Level Washington Center
04:37PM 36.6192 -76.3114 212° Southwest 463 533 36,000  Level Washington Center
04:38PM 36.5081 -76.3878 209° Southwest 463 533 36,000  Level Washington Center
04:40PM 36.2878 -76.5428 210° Southwest 463 533 36,000  Level Washington Center
04:42PM 36.0675 -76.6969 210° Southwest 463 533 36,000  Level Washington Center
04:43PM 35.9542 -76.7725 208° Southwest 463 533 36,000  Level Washington Center
04:45PM 35.7333 -76.9303 210° Southwest 469 540 36,000  Level Washington Center
04:47PM 35.5250 -77.0775 210° Southwest 457 526 36,000  Level Washington Center
04:48PM 35.4136 -77.1544 209° Southwest 457 526 36,000  Level Washington Center
04:49PM 35.2997 -77.2311 209° Southwest 463 533 36,000  Level Washington Center
04:50PM 35.1861 -77.3100 210° Southwest 463 533 36,000  Level Washington Center
04:51PM 35.0744 -77.3839 208° Southwest 468 539 36,000  Level Washington Center
04:53PM 34.8444 -77.5381 209° Southwest 468 539 36,000  Level Washington Center
04:54PM 34.7200 -77.6311 212° Southwest 473 544 36,000  Level Washington Center
04:55PM 34.6058 -77.7067 209° Southwest 473 544 36,000  Level Washington Center
04:56PM 34.4919 -77.7842 209° Southwest 473 544 36,000  Level Washington Center
04:58PM 34.2603 -77.8961 202° Southwest 486 559 36,000  Level Washington Center
05:01PM 33.8692 -78.0106 193° South 489 563 36,000  Level Jacksonville Center
05:03PM 33.5969 -78.0928 194° South 490 564 36,000  Level Jacksonville Center
05:05PM 33.3369 -78.1667 193° South 477 549 36,000  Level Jacksonville Center
05:07PM 33.0786 -78.2372 193° South 477 549 36,000  Level Jacksonville Center
05:09PM 32.8183 -78.3125 194° South 488 562 36,000  Level Jacksonville Center
05:10PM 32.6861 -78.3464 192° South 488 562 36,000  Level Jacksonville Center
05:11PM 32.5581 -78.3847 194° South 488 562 36,000  Level Jacksonville Center
05:12PM 32.4236 -78.4186 192° South 488 562 36,000  Level Jacksonville Center
05:13PM 32.3081 -78.4586 196° South 488 562 36,000  Level Jacksonville Center
05:14PM 32.1758 -78.4969 194° South 488 562 36,000  Level Jacksonville Center
05:15PM 32.0478 -78.5350 194° South 488 562 36,000  Level Jacksonville Center
05:16PM 31.9133 -78.5756 194° South 488 562 36,000  Level Jacksonville Center
05:17PM 31.7831 -78.6108 193° South 488 562 36,000  Level Jacksonville Center
05:18PM 31.6508 -78.6489 194° South 488 562 36,000  Level Jacksonville Center
05:19PM 31.5206 -78.6864 194° South 488 562 36,000  Level Jacksonville Center
05:20PM 31.3861 -78.7242 193° South 488 562 36,000  Level Jacksonville Center
05:21PM 31.1703 -78.7864 194° South 485 558 36,000  Level Miami Center
05:23PM 31.0397 -78.8222 193° South 484 557 36,000  Level Miami Center
05:24PM 30.8567 -78.8781 195° South 491 565 36,000  Level Jacksonville Center
05:27PM 30.4942 -78.9778 193° South 480 552 36,000  Level Miami Center
05:28PM 30.3647 -79.0206 196° South 482 555 36,000  Level Miami Center
05:33PM 29.7161 -79.3022 201° Southwest 484 557 36,000  Level Miami Center
05:34PM 29.5906 -79.3575 201° Southwest 484 557 36,000 360 Level Miami Center
05:38PM 29.0864 -79.5722 189° South 483 556 38,000 360 Climbing Miami Center
05:39PM 28.9406 -79.6478 204° Southwest 480 552 38,000  Level Miami Center
05:40PM 28.8178 -79.7092 204° Southwest 483 556 38,000  Level Miami Center
05:41PM 28.6964 -79.7711 204° Southwest 478 550 38,000  Level Miami Center
05:42PM 28.5739 -79.8333 204° Southwest 476 548 38,000  Level Miami Center
05:43PM 28.6198 -79.6487 189° South  Level FlightAware Approximate
05:43PM 28.4528 -79.8936 204° Southwest 476 548 38,000  Level Miami Center
05:45PM 28.1819 -80.0294 183° South 476 548 38,000  Level Miami Center
05:46PM 28.0650 -80.0881 204° Southwest 476 548 38,000  Level Miami Center
05:47PM 27.9375 -80.1514 204° Southwest 476 548 38,000  Level Miami Center
05:49PM 27.6967 -80.2708 203° Southwest 477 549 38,000  Level Miami Center
05:50PM 27.5742 -80.3308 203° Southwest 476 548 38,000  Level Miami Center
05:51PM 27.4528 -80.3911 204° Southwest 475 547 38,000  Level Miami Center
05:52PM 27.3308 -80.4508 204° Southwest 475 547 38,000  Level Miami Center
05:54PM 27.1847 -80.5222 203° Southwest 476 548 38,000  Level Miami Center
05:55PM 27.0631 -80.5833 204° Southwest 476 548 38,000  Level Miami Center
05:56PM 26.9411 -80.6428 203° Southwest 477 549 38,000  Level Miami Center
05:57PM 26.8186 -80.7031 204° Southwest 477 549 38,000  Level Miami Center
05:58PM 26.6822 -80.7697 204° Southwest 483 556 38,000  Level Miami Center
06:00PM 26.4308 -80.8917 203° Southwest 472 543 38,000  Level Miami Center
06:02PM 26.2056 -80.9997 203° Southwest 469 540 38,000  Level Miami Center
06:03PM 26.0622 -81.0692 204° Southwest 472 543 38,000  Level Miami Center
06:04PM 25.9422 -81.1267 203° Southwest 472 543 38,000  Level Miami Center
06:05PM 25.8222 -81.1853 204° Southwest 472 543 38,000  Level Miami Center
06:07PM 25.5808 -81.2994 203° Southwest 474 545 38,000  Level Miami Center
06:08PM 25.4342 -81.3703 204° Southwest 476 548 38,000  Level Miami Center
06:09PM 25.3108 -81.4275 203° Southwest 482 555 38,000 -60 Level Miami Center
06:10PM 25.1869 -81.4861 203° Southwest 482 555 37,900 -540 Descending Miami Center
06:11PM 25.0658 -81.5439 203° Southwest 481 554 37,000 -960 Descending Miami Center
06:12PM 24.9442 -81.6019 203° Southwest 479 551 36,000 -1,260 Descending Miami Center
06:13PM 24.8122 -81.6503 198° South 483 556 34,400 -1,800 Descending Miami Center
06:14PM 24.6542 -81.6353 175° South 493 567 32,400 -1,740 Descending Miami Center
06:15PM 24.5278 -81.6242 175° South 470 541 30,900 -1,500 Descending Miami Center
06:16PM 24.4178 -81.6619 197° South 457 526 29,300 -1,140 Descending Miami Center
06:17PM 24.3356 -81.7944 236° Southwest 443 510 28,600 -840 Descending Miami Center
06:20PM 24.0986 -82.0581 202° Southwest 395 455 26,000 -660 Descending Miami Center
06:21PM 24.0119 -82.1094 208° Southwest 365 420 26,000  Level Miami Center
06:23PM 23.8897 -82.1455 195° South  Level Estimated
06:26PM 23.4422 -82.1799 202° Southwest  Level FlightAware Approximate
06:30PM 23.0998 -82.3769 195° South  Level Estimated
06:31PM 22.9891 -82.4091 223° Southwest  Level Estimated
06:32PM 22.9891 -82.4091 223° Southwest  Level Estimated
06:33PM 22.9891 -82.4091 223° Southwest  Level Estimated
06:34PM 22.9891 -82.4091 223° Southwest  Level Estimated
06:35PM 22.9891 -82.4091 223° Southwest  Level Estimated
06:36PM 22.9891 -82.4091 223° Southwest  Level Estimated
06:37PM 22.9891 -82.4091 223° Southwest  Level Estimated
06:38PM 22.9891 -82.4091 223° Southwest  Level Estimated
06:39PM 22.9891 -82.4091 223° Southwest  Level Estimated
06:40PM 22.9891 -82.4091 223° Southwest  Level Estimated
06:41PM 22.9891 -82.4091 223° Southwest  Level Estimated
06:42PM 22.9891 -82.4091 223° Southwest  Level Estimated
06:43PM 22.9891 -82.4091 223° Southwest  Level Estimated
06:44PM 22.9891 -82.4091 223° Southwest  Level Estimated
06:45PM 22.9891 -82.4091 223° Southwest  Level Estimated
06:46PM 22.9891 -82.4091 223° Southwest  Level Estimated
06:47PM 22.9891 -82.4091 223° Southwest  Level Estimated
06:48PM 22.9891 -82.4091 223° Southwest  Level Estimated
06:49PM 22.9891 -82.4091 223° Southwest  Level Estimated
06:50PM 22.9891 -82.4091 223° Southwest  Level Estimated
06:51PM 22.9891 -82.4091 223° Southwest  Level Estimated
06:52PM 22.9891 -82.4091 223° Southwest  Level Estimated